aviador You're here:

PAWG Decoded Metar

WRANGELL in AK, USA
Report Time2017-07-21 03:56:00
UTC Time2017-07-21 04:29:00
Flight Rules vfr VFR
WindCalm
Visibility9999 m
Phenomena:N/A
Clouds:Broken 040 Hf
Expected CloudBase > 2,400 ft AGL from Temp-Dew spread
Ceiling4,000 ft
Temp16°C (ISA +1)
Dew Point10°C (68% RH)
QNH1017 hPa
Density Alt194 ft
Elevation36 ft
Report Wrong Elevation
Raw Report
PAWG 210356Z 00000KT 10SM BKN040 16/10 A3002 RMK AO2 SLP166
T01610100 $=

Extra information for PAWG:More info

Metar Taf Metar & Taf Last 4 Metars F.Rules Stats Wind Profile Meteogram Temp Stats Airport Information Weather charts Add Link Nearby VenuesMetar ALERT Operation Metar Decoded Social comments

AIRNAV info for PAWG